createdAt,value
2022-10-05T00:00:23.108Z,1000.78
2022-10-05T00:01:23.133Z,1000.77
2022-10-05T00:02:23.058Z,1000.75
2022-10-05T00:03:23.082Z,1000.73
2022-10-05T00:04:23.039Z,1000.68
2022-10-05T00:05:23.067Z,1000.68
2022-10-05T00:06:23.043Z,1000.68
2022-10-05T00:07:23.002Z,1000.79
2022-10-05T00:08:22.983Z,1000.82
2022-10-05T00:09:23.042Z,1000.80
2022-10-05T00:10:22.969Z,1000.79
2022-10-05T00:11:22.955Z,1000.78
2022-10-05T00:12:22.953Z,1000.78
2022-10-05T00:13:22.951Z,1000.79
2022-10-05T00:14:22.923Z,1000.78
2022-10-05T00:15:22.916Z,1000.76
2022-10-05T00:16:22.961Z,1000.75
2022-10-05T00:17:22.889Z,1000.76
2022-10-05T00:18:22.878Z,1000.73
2022-10-05T00:19:22.879Z,1000.71
2022-10-05T00:20:22.857Z,1000.69
2022-10-05T00:21:22.845Z,1000.66
2022-10-05T00:22:22.832Z,1000.64
2022-10-05T00:23:22.824Z,1000.64
2022-10-05T00:24:22.846Z,1000.66
2022-10-05T00:25:22.797Z,1000.62
2022-10-05T00:26:22.812Z,1000.69
2022-10-05T00:27:22.788Z,1000.69
2022-10-05T00:28:22.919Z,1000.70
2022-10-05T00:29:22.759Z,1000.69
2022-10-05T00:30:22.759Z,1000.76
2022-10-05T00:31:22.856Z,1000.75
2022-10-05T00:32:22.795Z,1000.75
2022-10-05T00:33:22.708Z,1000.69
2022-10-05T00:34:22.704Z,1000.75
2022-10-05T00:35:22.699Z,1000.77
2022-10-05T00:36:22.704Z,1000.83
2022-10-05T00:37:22.658Z,1000.87
2022-10-05T00:38:22.656Z,1000.86
2022-10-05T00:39:22.639Z,1000.91
2022-10-05T00:40:22.653Z,1000.91
2022-10-05T00:41:22.623Z,1000.93
2022-10-05T00:42:22.609Z,1000.90
2022-10-05T00:43:22.595Z,1000.88
2022-10-05T00:44:22.588Z,1000.84
2022-10-05T00:45:22.567Z,1000.86
2022-10-05T00:46:22.624Z,1000.86
2022-10-05T00:47:22.551Z,1000.84
2022-10-05T00:48:22.559Z,1000.89
2022-10-05T00:49:22.532Z,1000.90
2022-10-05T00:50:22.522Z,1000.88
2022-10-05T00:51:22.522Z,1000.88
2022-10-05T00:52:22.501Z,1000.85
2022-10-05T00:53:22.483Z,1000.87
2022-10-05T00:54:22.493Z,1000.87
2022-10-05T00:55:22.481Z,1000.85
2022-10-05T00:56:22.472Z,1000.88
2022-10-05T00:57:22.448Z,1000.92
2022-10-05T00:58:22.433Z,1000.91
2022-10-05T00:59:22.450Z,1000.89
2022-10-05T01:00:22.470Z,1000.82
2022-10-05T01:01:22.484Z,1000.77
2022-10-05T01:02:22.440Z,1000.76
2022-10-05T01:03:22.402Z,1000.75
2022-10-05T01:04:22.535Z,1000.71
2022-10-05T01:05:22.362Z,1000.72
2022-10-05T01:06:22.343Z,1000.64
2022-10-05T01:07:22.398Z,1000.62
2022-10-05T01:08:22.319Z,1000.61
2022-10-05T01:09:22.312Z,1000.60
2022-10-05T01:10:22.298Z,1000.58
2022-10-05T01:11:22.290Z,1000.56
2022-10-05T01:12:22.315Z,1000.56
2022-10-05T01:13:22.262Z,1000.52
2022-10-05T01:14:22.251Z,1000.54
2022-10-05T01:15:22.270Z,1000.56
2022-10-05T01:16:22.280Z,1000.57
2022-10-05T01:17:22.222Z,1000.55
2022-10-05T01:18:22.210Z,1000.56
2022-10-05T01:19:22.219Z,1000.57
2022-10-05T01:20:22.296Z,1000.51
2022-10-05T01:21:22.182Z,1000.54
2022-10-05T01:22:22.163Z,1000.52
2022-10-05T01:23:22.177Z,1000.50
2022-10-05T01:24:22.152Z,1000.49
2022-10-05T01:25:22.135Z,1000.51
2022-10-05T01:26:22.140Z,1000.48
2022-10-05T01:27:22.104Z,1000.48
2022-10-05T01:28:22.199Z,1000.44
2022-10-05T01:29:22.091Z,1000.40
2022-10-05T01:30:22.078Z,1000.39
2022-10-05T01:31:22.105Z,1000.38
2022-10-05T01:32:22.054Z,1000.41
2022-10-05T01:33:22.045Z,1000.40
2022-10-05T01:34:22.049Z,1000.40
2022-10-05T01:35:22.021Z,1000.38
2022-10-05T01:36:22.053Z,1000.37
2022-10-05T01:37:21.997Z,1000.34
2022-10-05T01:38:28.675Z,1000.31
2022-10-05T01:39:22.011Z,1000.34
2022-10-05T01:40:21.982Z,1000.32
2022-10-05T01:41:22.069Z,1000.30
2022-10-05T01:42:21.944Z,1000.30
2022-10-05T01:43:21.960Z,1000.29
2022-10-05T01:44:21.924Z,1000.24
2022-10-05T01:45:21.914Z,1000.24
2022-10-05T01:46:22.004Z,1000.19
2022-10-05T01:47:21.892Z,1000.20
2022-10-05T01:48:22.002Z,1000.17
2022-10-05T01:49:21.871Z,1000.20
2022-10-05T01:50:21.850Z,1000.22
2022-10-05T01:51:21.845Z,1000.22
2022-10-05T01:52:21.903Z,1000.24
2022-10-05T01:53:21.826Z,1000.24
2022-10-05T01:54:21.834Z,1000.26
2022-10-05T01:55:21.872Z,1000.27
2022-10-05T01:56:21.789Z,1000.30
2022-10-05T01:57:21.782Z,1000.34
2022-10-05T01:58:21.759Z,1000.32
2022-10-05T01:59:21.791Z,1000.36
2022-10-05T02:00:21.794Z,1000.34
2022-10-05T02:01:21.861Z,1000.36
2022-10-05T02:02:21.767Z,1000.37
2022-10-05T02:03:21.708Z,1000.39
2022-10-05T02:04:56.546Z,1000.41
2022-10-05T02:05:22.710Z,1000.41
2022-10-05T02:06:21.685Z,1000.39
2022-10-05T02:07:21.674Z,1000.34
2022-10-05T02:08:21.676Z,1000.36
2022-10-05T02:09:21.818Z,1000.32
2022-10-05T02:10:21.656Z,1000.34
2022-10-05T02:11:21.626Z,1000.37
2022-10-05T02:12:21.607Z,1000.39
2022-10-05T02:13:21.602Z,1000.42
2022-10-05T02:14:21.609Z,1000.44
2022-10-05T02:15:21.598Z,1000.45
2022-10-05T02:16:21.663Z,1000.44
2022-10-05T02:17:21.578Z,1000.45
2022-10-05T02:18:21.596Z,1000.44
2022-10-05T02:19:21.536Z,1000.42
2022-10-05T02:20:21.519Z,1000.42
2022-10-05T02:21:21.516Z,1000.39
2022-10-05T02:22:21.495Z,1000.40
2022-10-05T02:23:21.510Z,1000.47
2022-10-05T02:24:21.621Z,1000.49
2022-10-05T02:25:21.522Z,1000.49
2022-10-05T02:26:21.467Z,1000.46
2022-10-05T02:27:21.469Z,1000.46
2022-10-05T02:28:21.490Z,1000.44
2022-10-05T02:29:21.434Z,1000.44
2022-10-05T02:30:21.501Z,1000.42
2022-10-05T02:31:21.482Z,1000.44
2022-10-05T02:32:21.391Z,1000.39
2022-10-05T02:33:21.380Z,1000.37
2022-10-05T02:34:21.394Z,1000.39
2022-10-05T02:35:21.400Z,1000.34
2022-10-05T02:36:21.354Z,1000.36
2022-10-05T02:37:21.355Z,1000.37
2022-10-05T02:38:21.327Z,1000.36
2022-10-05T02:39:21.313Z,1000.41
2022-10-05T02:40:21.404Z,1000.38
2022-10-05T02:41:21.293Z,1000.37
2022-10-05T02:42:21.283Z,1000.40
2022-10-05T02:43:21.268Z,1000.34
2022-10-05T02:44:21.262Z,1000.30
2022-10-05T02:45:21.266Z,1000.29
2022-10-05T02:46:21.294Z,1000.36
2022-10-05T02:47:21.224Z,1000.38
2022-10-05T02:48:21.223Z,1000.26
2022-10-05T02:49:21.214Z,1000.28
2022-10-05T02:50:21.211Z,1000.20
2022-10-05T02:51:21.181Z,1000.19
2022-10-05T02:52:21.170Z,1000.21
2022-10-05T02:53:21.155Z,1000.21
2022-10-05T02:54:21.191Z,1000.17
2022-10-05T02:55:21.130Z,1000.15
2022-10-05T02:56:21.149Z,1000.11
2022-10-05T02:57:21.136Z,1000.06
2022-10-05T02:58:21.108Z,999.97
2022-10-05T02:59:21.085Z,999.98
2022-10-05T03:00:21.100Z,999.93
2022-10-05T03:01:21.146Z,999.90
2022-10-05T03:02:21.143Z,999.89
2022-10-05T03:03:21.049Z,999.87
2022-10-05T03:04:21.041Z,999.89
2022-10-05T03:05:21.056Z,999.89
2022-10-05T03:06:21.033Z,999.83
2022-10-05T03:07:21.006Z,999.85
2022-10-05T03:08:20.997Z,999.83
2022-10-05T03:09:20.996Z,999.81
2022-10-05T03:10:20.979Z,999.79
2022-10-05T03:11:20.982Z,999.82
2022-10-05T03:12:20.971Z,999.78
2022-10-05T03:13:20.938Z,999.82
2022-10-05T03:14:20.963Z,999.84
2022-10-05T03:15:20.907Z,999.80
2022-10-05T03:16:21.010Z,999.80
2022-10-05T03:17:20.897Z,999.77
2022-10-05T03:18:20.907Z,999.75
2022-10-05T03:19:20.872Z,999.75
2022-10-05T03:20:20.863Z,999.81
2022-10-05T03:21:20.852Z,999.78
2022-10-05T03:22:20.842Z,999.84
2022-10-05T03:23:21.099Z,999.80
2022-10-05T03:24:20.819Z,999.76
2022-10-05T03:25:20.805Z,999.74
2022-10-05T03:26:20.797Z,999.72
2022-10-05T03:27:20.782Z,999.72
2022-10-05T03:28:20.924Z,999.66
2022-10-05T03:29:20.760Z,999.66
2022-10-05T03:30:20.752Z,999.62
2022-10-05T03:31:20.827Z,999.64
2022-10-05T03:32:20.737Z,999.69
2022-10-05T03:33:20.776Z,999.65
2022-10-05T03:34:20.704Z,999.65
2022-10-05T03:35:20.697Z,999.67
2022-10-05T03:36:20.687Z,999.72
2022-10-05T03:37:20.686Z,999.67
2022-10-05T03:38:20.703Z,999.63
2022-10-05T03:39:20.644Z,999.59
2022-10-05T03:40:20.650Z,999.62
2022-10-05T03:41:20.629Z,999.67
2022-10-05T03:42:20.624Z,999.60
2022-10-05T03:43:20.639Z,999.60
2022-10-05T03:44:20.612Z,999.59
2022-10-05T03:45:20.593Z,999.58
2022-10-05T03:46:20.609Z,999.60
2022-10-05T03:47:20.564Z,999.61
2022-10-05T03:48:20.583Z,999.56
2022-10-05T03:49:20.550Z,999.56
2022-10-05T03:50:20.536Z,999.56
2022-10-05T03:51:20.520Z,999.51
2022-10-05T03:52:20.559Z,999.51
2022-10-05T03:53:20.510Z,999.48
2022-10-05T03:54:20.502Z,999.47
2022-10-05T03:55:20.474Z,999.45
2022-10-05T03:56:20.466Z,999.47
2022-10-05T03:57:20.454Z,999.43
2022-10-05T03:58:20.465Z,999.47
2022-10-05T03:59:20.436Z,999.49
2022-10-05T04:00:20.435Z,999.45
2022-10-05T04:01:20.489Z,999.53
2022-10-05T04:02:20.479Z,999.48
2022-10-05T04:03:20.420Z,999.50
2022-10-05T04:04:20.375Z,999.44
2022-10-05T04:05:20.402Z,999.46
2022-10-05T04:06:20.355Z,999.48
2022-10-05T04:07:20.364Z,999.46
2022-10-05T04:08:20.334Z,999.47
2022-10-05T04:09:20.312Z,999.47
2022-10-05T04:10:20.314Z,999.42
2022-10-05T04:11:20.301Z,999.45
2022-10-05T04:12:20.311Z,999.47
2022-10-05T04:13:20.276Z,999.46
2022-10-05T04:14:20.267Z,999.43
2022-10-05T04:15:20.253Z,999.49
2022-10-05T04:16:20.296Z,999.39
2022-10-05T04:17:20.249Z,999.45
2022-10-05T04:18:20.233Z,999.47
2022-10-05T04:19:20.200Z,999.46
2022-10-05T04:20:20.211Z,999.47
2022-10-05T04:21:23.677Z,999.50
2022-10-05T04:22:20.200Z,999.44
2022-10-05T04:23:20.164Z,999.45
2022-10-05T04:24:20.150Z,999.43
2022-10-05T04:25:20.134Z,999.41
2022-10-05T04:26:20.126Z,999.38
2022-10-05T04:27:20.112Z,999.39
2022-10-05T04:28:20.211Z,999.36
2022-10-05T04:29:20.091Z,999.38
2022-10-05T04:30:20.087Z,999.35
2022-10-05T04:31:20.162Z,999.36
2022-10-05T04:32:20.073Z,999.35
2022-10-05T04:33:20.070Z,999.34
2022-10-05T04:34:20.037Z,999.30
2022-10-05T04:35:20.033Z,999.34
2022-10-05T04:36:20.037Z,999.30
2022-10-05T04:37:20.002Z,999.27
2022-10-05T04:38:19.993Z,999.25
2022-10-05T04:39:19.987Z,999.29
2022-10-05T04:40:19.970Z,999.30
2022-10-05T04:41:19.979Z,999.31
2022-10-05T04:42:19.949Z,999.27
2022-10-05T04:43:19.964Z,999.28
2022-10-05T04:44:19.927Z,999.28
2022-10-05T04:45:19.914Z,999.26
2022-10-05T04:46:20.032Z,999.28
2022-10-05T04:47:19.911Z,999.24
2022-10-05T04:48:19.918Z,999.29
2022-10-05T04:49:19.870Z,999.31
2022-10-05T04:50:19.860Z,999.29
2022-10-05T04:51:19.869Z,999.22
2022-10-05T04:52:19.856Z,999.26
2022-10-05T04:53:19.831Z,999.28
2022-10-05T04:54:19.821Z,999.28
2022-10-05T04:55:19.803Z,999.27
2022-10-05T04:56:19.813Z,999.24
2022-10-05T04:57:19.801Z,999.24
2022-10-05T04:58:19.772Z,999.21
2022-10-05T04:59:19.760Z,999.18
2022-10-05T05:00:19.753Z,999.17
2022-10-05T05:01:19.771Z,999.15
2022-10-05T05:02:19.752Z,999.17
2022-10-05T05:03:19.787Z,999.19
2022-10-05T05:04:19.721Z,999.20
2022-10-05T05:05:19.697Z,999.17
2022-10-05T05:06:19.685Z,999.17
2022-10-05T05:07:19.708Z,999.20
2022-10-05T05:08:19.673Z,999.19
2022-10-05T05:09:19.650Z,999.22
2022-10-05T05:10:19.642Z,999.20
2022-10-05T05:11:24.302Z,999.25
2022-10-05T05:12:20.639Z,999.22
2022-10-05T05:13:19.606Z,999.23
2022-10-05T05:14:19.595Z,999.25
2022-10-05T05:15:19.585Z,999.23
2022-10-05T05:16:19.687Z,999.24
2022-10-05T05:17:19.580Z,999.25
2022-10-05T05:18:19.559Z,999.29
2022-10-05T05:19:19.537Z,999.26
2022-10-05T05:20:19.565Z,999.29
2022-10-05T05:21:19.515Z,999.32
2022-10-05T05:22:19.536Z,999.29
2022-10-05T05:23:19.502Z,999.29
2022-10-05T05:24:19.496Z,999.31
2022-10-05T05:25:19.480Z,999.32
2022-10-05T05:26:19.491Z,999.32
2022-10-05T05:27:19.458Z,999.31
2022-10-05T05:28:19.540Z,999.33
2022-10-05T05:29:19.430Z,999.31
2022-10-05T05:30:19.440Z,999.30
2022-10-05T05:31:19.507Z,999.35
2022-10-05T05:32:19.407Z,999.35
2022-10-05T05:33:19.394Z,999.34
2022-10-05T05:34:19.394Z,999.34
2022-10-05T05:35:19.388Z,999.33
2022-10-05T05:36:22.973Z,999.29
2022-10-05T05:37:19.343Z,999.29
2022-10-05T05:38:19.330Z,999.29
2022-10-05T05:39:19.322Z,999.32
2022-10-05T05:40:19.314Z,999.26
2022-10-05T05:41:19.322Z,999.29
2022-10-05T05:42:19.311Z,999.23
2022-10-05T05:43:19.278Z,999.28
2022-10-05T05:44:19.264Z,999.21
2022-10-05T05:45:19.253Z,999.28
2022-10-05T05:46:19.318Z,999.29
2022-10-05T05:47:19.305Z,999.23
2022-10-05T05:48:19.220Z,999.25
2022-10-05T05:49:19.207Z,999.23
2022-10-05T05:50:19.197Z,999.21
2022-10-05T05:51:19.206Z,999.25
2022-10-05T05:52:19.257Z,999.24
2022-10-05T05:53:19.166Z,999.23
2022-10-05T05:54:19.175Z,999.25
2022-10-05T05:55:19.146Z,999.25
2022-10-05T05:56:19.151Z,999.25
2022-10-05T05:57:19.118Z,999.27
2022-10-05T05:58:19.129Z,999.21
2022-10-05T05:59:19.098Z,999.27
2022-10-05T06:00:19.088Z,999.29
2022-10-05T06:01:32.177Z,999.29
2022-10-05T06:02:20.135Z,999.27
2022-10-05T06:03:19.218Z,999.30
2022-10-05T06:04:19.042Z,999.26
2022-10-05T06:05:19.032Z,999.24
2022-10-05T06:06:19.019Z,999.26
2022-10-05T06:07:19.007Z,999.22
2022-10-05T06:08:19.036Z,999.27
2022-10-05T06:09:18.984Z,999.24
2022-10-05T06:10:18.976Z,999.29
2022-10-05T06:11:18.962Z,999.28
2022-10-05T06:12:18.973Z,999.27
2022-10-05T06:13:18.964Z,999.26
2022-10-05T06:14:18.952Z,999.24
2022-10-05T06:15:18.917Z,999.26
2022-10-05T06:16:18.990Z,999.24
2022-10-05T06:17:18.897Z,999.25
2022-10-05T06:18:18.907Z,999.21
2022-10-05T06:19:18.872Z,999.23
2022-10-05T06:20:18.884Z,999.24
2022-10-05T06:21:18.850Z,999.24
2022-10-05T06:22:18.840Z,999.29
2022-10-05T06:23:18.830Z,999.28
2022-10-05T06:24:18.861Z,999.28
2022-10-05T06:25:18.806Z,999.28
2022-10-05T06:26:18.796Z,999.28
2022-10-05T06:27:18.784Z,999.30
2022-10-05T06:28:18.809Z,999.26
2022-10-05T06:29:18.783Z,999.29
2022-10-05T06:30:18.750Z,999.32
2022-10-05T06:31:18.807Z,999.31
2022-10-05T06:32:18.728Z,999.35
2022-10-05T06:33:18.714Z,999.34
2022-10-05T06:34:18.706Z,999.36
2022-10-05T06:35:18.846Z,999.36
2022-10-05T06:36:18.697Z,999.38
2022-10-05T06:37:18.672Z,999.39
2022-10-05T06:38:18.661Z,999.42
2022-10-05T06:39:18.650Z,999.39
2022-10-05T06:40:18.674Z,999.43
2022-10-05T06:41:18.626Z,999.38
2022-10-05T06:42:18.614Z,999.39
2022-10-05T06:43:18.605Z,999.39
2022-10-05T06:44:18.621Z,999.37
2022-10-05T06:45:18.619Z,999.39
2022-10-05T06:46:18.671Z,999.43
2022-10-05T06:47:18.560Z,999.46
2022-10-05T06:48:18.558Z,999.40
2022-10-05T06:49:18.562Z,999.38
2022-10-05T06:50:18.529Z,999.44
2022-10-05T06:51:18.514Z,999.37
2022-10-05T06:52:18.507Z,999.40
2022-10-05T06:53:18.520Z,999.41
2022-10-05T06:54:18.481Z,999.37
2022-10-05T06:55:18.474Z,999.39
2022-10-05T06:56:18.524Z,999.35
2022-10-05T06:57:18.471Z,999.35
2022-10-05T06:58:18.435Z,999.33
2022-10-05T06:59:18.531Z,999.34
2022-10-05T07:00:18.434Z,999.36
2022-10-05T07:01:18.452Z,999.36
2022-10-05T07:02:18.454Z,999.36
2022-10-05T07:03:18.383Z,999.34
2022-10-05T07:04:18.371Z,999.33
2022-10-05T07:05:18.383Z,999.27
2022-10-05T07:06:18.347Z,999.28
2022-10-05T07:07:18.360Z,999.27
2022-10-05T07:08:18.324Z,999.28
2022-10-05T07:09:18.315Z,999.29
2022-10-05T07:10:18.324Z,999.31
2022-10-05T07:11:18.294Z,999.37
2022-10-05T07:12:18.317Z,999.33
2022-10-05T07:13:18.271Z,999.33
2022-10-05T07:14:18.259Z,999.33
2022-10-05T07:15:18.247Z,999.34
2022-10-05T07:16:18.273Z,999.38
2022-10-05T07:17:18.247Z,999.31
2022-10-05T07:18:18.213Z,999.33
2022-10-05T07:19:18.203Z,999.36
2022-10-05T07:20:18.191Z,999.33
2022-10-05T07:21:18.180Z,999.32
2022-10-05T07:22:18.198Z,999.28
2022-10-05T07:23:18.163Z,999.29
2022-10-05T07:24:18.148Z,999.21
2022-10-05T07:25:18.139Z,999.26
2022-10-05T07:26:18.123Z,999.28
2022-10-05T07:27:18.114Z,999.29
2022-10-05T07:28:18.234Z,999.33
2022-10-05T07:29:18.093Z,999.30
2022-10-05T07:30:18.078Z,999.26
2022-10-05T07:31:18.187Z,999.27
2022-10-05T07:32:18.062Z,999.26
2022-10-05T07:33:18.120Z,999.28
2022-10-05T07:34:18.035Z,999.32
2022-10-05T07:35:18.176Z,999.33
2022-10-05T07:36:18.013Z,999.34
2022-10-05T07:37:18.151Z,999.38
2022-10-05T07:38:17.990Z,999.42
2022-10-05T07:39:18.159Z,999.43
2022-10-05T07:40:17.988Z,999.48
2022-10-05T07:41:18.087Z,999.48
2022-10-05T07:42:17.946Z,999.47
2022-10-05T07:43:18.145Z,999.47
2022-10-05T07:44:17.978Z,999.49
2022-10-05T07:45:17.986Z,999.51
2022-10-05T07:46:17.970Z,999.49
2022-10-05T07:47:17.891Z,999.51
2022-10-05T07:48:17.879Z,999.51
2022-10-05T07:49:18.212Z,999.53
2022-10-05T07:50:17.855Z,999.59
2022-10-05T07:51:17.861Z,999.59
2022-10-05T07:52:17.860Z,999.59
2022-10-05T07:53:18.189Z,999.57
2022-10-05T07:54:17.817Z,999.61
2022-10-05T07:55:17.800Z,999.64
2022-10-05T07:56:17.787Z,999.65
2022-10-05T07:57:17.779Z,999.64
2022-10-05T07:58:17.786Z,999.64
2022-10-05T07:59:17.756Z,999.72
2022-10-05T08:00:17.793Z,999.72
2022-10-05T08:01:17.733Z,999.69
2022-10-05T08:02:17.886Z,999.72
2022-10-05T08:03:17.802Z,999.74
2022-10-05T08:04:17.698Z,999.66
2022-10-05T08:05:17.713Z,999.72
2022-10-05T08:06:17.698Z,999.75
2022-10-05T08:07:17.712Z,999.77
2022-10-05T08:08:19.638Z,999.77
2022-10-05T08:09:17.644Z,999.78
2022-10-05T08:10:17.649Z,999.79
2022-10-05T08:11:17.642Z,999.72
2022-10-05T08:12:17.617Z,999.73
2022-10-05T08:13:17.602Z,999.76
2022-10-05T08:14:17.587Z,999.70
2022-10-05T08:15:17.577Z,999.78
2022-10-05T08:16:17.752Z,999.75
2022-10-05T08:17:17.555Z,999.75
2022-10-05T08:18:17.542Z,999.79
2022-10-05T08:19:17.533Z,999.75
2022-10-05T08:20:17.542Z,999.76
2022-10-05T08:21:17.509Z,999.77
2022-10-05T08:22:17.498Z,999.83
2022-10-05T08:23:17.491Z,999.79
2022-10-05T08:24:17.478Z,999.73
2022-10-05T08:25:17.466Z,999.76
2022-10-05T08:26:17.486Z,999.72
2022-10-05T08:27:17.444Z,999.71
2022-10-05T08:28:17.492Z,999.75
2022-10-05T08:29:17.422Z,999.71
2022-10-05T08:30:17.409Z,999.75
2022-10-05T08:31:17.422Z,999.66
2022-10-05T08:32:17.404Z,999.69
2022-10-05T08:33:17.375Z,999.66
2022-10-05T08:34:17.366Z,999.60
2022-10-05T08:35:17.358Z,999.63
2022-10-05T08:36:17.348Z,999.57
2022-10-05T08:37:17.351Z,999.63
2022-10-05T08:38:17.323Z,999.59
2022-10-05T08:39:17.309Z,999.65
2022-10-05T08:40:17.297Z,999.66
2022-10-05T08:41:17.290Z,999.61
2022-10-05T08:42:17.298Z,999.63
2022-10-05T08:43:17.266Z,999.66
2022-10-05T08:44:17.257Z,999.58
2022-10-05T08:45:17.246Z,999.57
2022-10-05T08:46:17.241Z,999.63
2022-10-05T08:47:17.222Z,999.58
2022-10-05T08:48:17.262Z,999.61
2022-10-05T08:49:17.198Z,999.57
2022-10-05T08:50:17.203Z,999.59
2022-10-05T08:51:17.177Z,999.59
2022-10-05T08:52:17.200Z,999.65
2022-10-05T08:53:17.174Z,999.63
2022-10-05T08:54:17.140Z,999.62
2022-10-05T08:55:17.137Z,999.63
2022-10-05T08:56:20.115Z,999.59
2022-10-05T08:57:17.109Z,999.65
2022-10-05T08:58:17.098Z,999.64
2022-10-05T08:59:17.113Z,999.60
2022-10-05T09:00:17.074Z,999.66
2022-10-05T09:01:17.178Z,999.59
2022-10-05T09:02:17.117Z,999.66
2022-10-05T09:03:17.044Z,999.69
2022-10-05T09:04:17.071Z,999.66
2022-10-05T09:05:17.053Z,999.85
2022-10-05T09:06:17.010Z,999.74
2022-10-05T09:07:17.002Z,999.79
2022-10-05T09:08:16.991Z,999.90
2022-10-05T09:09:16.975Z,999.88
2022-10-05T09:10:16.966Z,999.90
2022-10-05T09:11:16.978Z,999.85
2022-10-05T09:12:16.941Z,999.84
2022-10-05T09:13:16.931Z,999.90
2022-10-05T09:14:16.918Z,999.90
2022-10-05T09:15:31.786Z,1000.00
2022-10-05T09:16:18.006Z,999.99
2022-10-05T09:17:16.887Z,999.96
2022-10-05T09:18:16.874Z,1000.01
2022-10-05T09:19:16.871Z,999.97
2022-10-05T09:20:16.888Z,999.97
2022-10-05T09:21:16.861Z,999.99
2022-10-05T09:22:16.828Z,999.96
2022-10-05T09:23:16.824Z,999.99
2022-10-05T09:24:16.810Z,1000.04
2022-10-05T09:25:16.817Z,999.93
2022-10-05T09:26:19.265Z,1000.03
2022-10-05T09:27:16.775Z,999.97
2022-10-05T09:28:16.825Z,1000.01
2022-10-05T09:29:16.754Z,1000.00
2022-10-05T09:30:16.743Z,999.99
2022-10-05T09:31:16.833Z,999.95
2022-10-05T09:32:16.823Z,999.91
2022-10-05T09:33:16.707Z,999.87
2022-10-05T09:34:16.696Z,999.80
2022-10-05T09:35:16.708Z,999.87
2022-10-05T09:36:16.803Z,999.90
2022-10-05T09:37:16.684Z,999.82
2022-10-05T09:38:16.651Z,999.88
2022-10-05T09:39:16.643Z,999.86
2022-10-05T09:40:16.634Z,999.82
2022-10-05T09:41:16.639Z,999.80
2022-10-05T09:42:16.609Z,999.79
2022-10-05T09:43:16.596Z,999.81
2022-10-05T09:44:16.584Z,999.76
2022-10-05T09:45:21.171Z,999.74
2022-10-05T09:46:16.626Z,999.69
2022-10-05T09:47:16.555Z,999.74
2022-10-05T09:48:16.564Z,999.69
2022-10-05T09:49:16.531Z,999.67
2022-10-05T09:50:16.516Z,999.64
2022-10-05T09:51:16.508Z,999.67
2022-10-05T09:52:19.104Z,999.65
2022-10-05T09:53:16.505Z,999.72
2022-10-05T09:54:16.483Z,999.67
2022-10-05T09:55:16.466Z,999.64
2022-10-05T09:56:16.472Z,999.65
2022-10-05T09:57:16.462Z,999.74
2022-10-05T09:58:16.433Z,999.80
2022-10-05T09:59:16.419Z,999.71
2022-10-05T10:00:16.407Z,999.73
2022-10-05T10:01:32.524Z,999.71
2022-10-05T10:02:17.555Z,999.72
2022-10-05T10:03:16.452Z,999.68
2022-10-05T10:04:16.364Z,999.71
2022-10-05T10:05:16.357Z,999.70
2022-10-05T10:06:16.338Z,999.66
2022-10-05T10:07:16.355Z,999.70
2022-10-05T10:08:16.336Z,999.68
2022-10-05T10:09:16.313Z,999.71
2022-10-05T10:10:16.316Z,999.65
2022-10-05T10:11:16.288Z,999.68
2022-10-05T10:12:16.301Z,999.80
2022-10-05T10:13:16.262Z,999.79
2022-10-05T10:14:16.324Z,999.80
2022-10-05T10:15:16.269Z,999.79
2022-10-05T10:16:16.268Z,999.76
2022-10-05T10:17:16.217Z,999.77
2022-10-05T10:18:16.206Z,999.70
2022-10-05T10:19:16.198Z,999.69
2022-10-05T10:20:16.183Z,999.74
2022-10-05T10:21:16.192Z,999.72
2022-10-05T10:22:16.160Z,999.72
2022-10-05T10:23:16.152Z,999.74
2022-10-05T10:24:16.159Z,999.71
2022-10-05T10:25:16.130Z,999.68
2022-10-05T10:26:16.141Z,999.70
2022-10-05T10:27:16.109Z,999.68
2022-10-05T10:28:16.163Z,999.70
2022-10-05T10:29:16.141Z,999.67
2022-10-05T10:30:16.115Z,999.66
2022-10-05T10:31:16.145Z,999.58
2022-10-05T10:32:16.072Z,999.54
2022-10-05T10:33:16.041Z,999.55
2022-10-05T10:34:16.027Z,999.55
2022-10-05T10:35:16.104Z,999.54
2022-10-05T10:36:16.008Z,999.53
2022-10-05T10:37:15.996Z,999.51
2022-10-05T10:38:15.983Z,999.55
2022-10-05T10:39:15.973Z,999.55
2022-10-05T10:40:16.037Z,999.58
2022-10-05T10:41:15.976Z,999.53
2022-10-05T10:42:15.939Z,999.53
2022-10-05T10:43:15.928Z,999.57
2022-10-05T10:44:15.919Z,999.55
2022-10-05T10:45:15.911Z,999.43
2022-10-05T10:46:15.901Z,999.48
2022-10-05T10:47:16.196Z,999.48
2022-10-05T10:48:15.894Z,999.44
2022-10-05T10:49:15.861Z,999.48
2022-10-05T10:50:15.932Z,999.56
2022-10-05T10:51:15.837Z,999.44
2022-10-05T10:52:15.827Z,999.45
2022-10-05T10:53:15.849Z,999.43
2022-10-05T10:54:15.805Z,999.38
2022-10-05T10:55:15.792Z,999.42
2022-10-05T10:56:15.802Z,999.38
2022-10-05T10:57:16.156Z,999.41
2022-10-05T10:58:16.386Z,999.41
2022-10-05T10:59:15.752Z,999.41
2022-10-05T11:00:15.955Z,999.32
2022-10-05T11:01:15.796Z,999.29
2022-10-05T11:02:15.771Z,999.26
2022-10-05T11:03:15.794Z,999.28
2022-10-05T11:04:15.714Z,999.32
2022-10-05T11:05:15.681Z,999.38
2022-10-05T11:06:15.671Z,999.26
2022-10-05T11:07:15.658Z,999.34
2022-10-05T11:08:15.672Z,999.25
2022-10-05T11:09:15.636Z,999.30
2022-10-05T11:10:15.701Z,999.24
2022-10-05T11:11:15.617Z,999.27
2022-10-05T11:12:15.870Z,999.27
2022-10-05T11:13:15.592Z,999.18
2022-10-05T11:14:15.585Z,999.23
2022-10-05T11:15:15.570Z,999.24
2022-10-05T11:16:18.744Z,999.16
2022-10-05T11:17:15.579Z,999.25
2022-10-05T11:18:15.545Z,999.17
2022-10-05T11:19:15.527Z,999.17
2022-10-05T11:20:15.554Z,999.16
2022-10-05T11:21:15.524Z,999.11
2022-10-05T11:22:15.493Z,999.07
2022-10-05T11:23:15.484Z,999.11
2022-10-05T11:24:15.476Z,999.06
2022-10-05T11:25:15.459Z,999.10
2022-10-05T11:26:15.470Z,999.14
2022-10-05T11:27:15.512Z,999.08
2022-10-05T11:28:15.565Z,999.10
2022-10-05T11:29:15.418Z,999.06
2022-10-05T11:30:15.461Z,999.10
2022-10-05T11:31:15.450Z,998.99
2022-10-05T11:32:15.406Z,999.07
2022-10-05T11:33:15.376Z,999.05
2022-10-05T11:34:15.363Z,999.11
2022-10-05T11:35:15.351Z,998.99
2022-10-05T11:36:15.343Z,999.10
2022-10-05T11:37:15.348Z,999.00
2022-10-05T11:38:15.317Z,999.00
2022-10-05T11:39:15.309Z,998.96
2022-10-05T11:40:15.296Z,998.95
2022-10-05T11:41:15.282Z,998.89
2022-10-05T11:42:15.294Z,998.90
2022-10-05T11:43:15.262Z,998.89
2022-10-05T11:44:15.269Z,998.89
2022-10-05T11:45:15.240Z,998.86
2022-10-05T11:46:15.281Z,998.88
2022-10-05T11:47:15.219Z,998.81
2022-10-05T11:48:15.205Z,998.75
2022-10-05T11:49:15.215Z,998.78
2022-10-05T11:50:15.186Z,998.73
2022-10-05T11:51:15.198Z,998.83
2022-10-05T11:52:15.183Z,998.78
2022-10-05T11:53:15.153Z,998.76
2022-10-05T11:54:15.140Z,998.78
2022-10-05T11:55:15.128Z,998.70
2022-10-05T11:56:15.121Z,998.66
2022-10-05T11:57:15.137Z,998.64
2022-10-05T11:58:15.129Z,998.62
2022-10-05T11:59:15.084Z,998.67
2022-10-05T12:00:15.097Z,998.61
2022-10-05T12:01:15.062Z,998.65
2022-10-05T12:02:15.055Z,998.63
2022-10-05T12:03:15.155Z,998.59
2022-10-05T12:04:15.172Z,998.59
2022-10-05T12:05:15.018Z,998.53
2022-10-05T12:06:15.009Z,998.55
2022-10-05T12:07:14.996Z,998.56
2022-10-05T12:08:15.008Z,998.47
2022-10-05T12:09:14.972Z,998.53
2022-10-05T12:10:14.962Z,998.50
2022-10-05T12:11:14.952Z,998.57
2022-10-05T12:12:15.064Z,998.58
2022-10-05T12:13:14.928Z,998.57
2022-10-05T12:14:14.920Z,998.58
2022-10-05T12:15:15.068Z,998.50
2022-10-05T12:16:14.981Z,998.59
2022-10-05T12:17:14.906Z,998.53
2022-10-05T12:18:14.877Z,998.56
2022-10-05T12:19:14.861Z,998.56
2022-10-05T12:20:14.855Z,998.55
2022-10-05T12:21:14.839Z,998.54
2022-10-05T12:22:14.850Z,998.60